createdAt,value
2022-10-25T00:02:17.066Z,74.75
2022-10-25T00:04:45.061Z,69.47
2022-10-25T00:07:12.496Z,70.75
2022-10-25T00:09:39.663Z,71.63
2022-10-25T00:12:06.885Z,73.43
2022-10-25T00:14:34.268Z,86.93
2022-10-25T00:17:01.558Z,83.13
2022-10-25T00:19:28.701Z,79.90
2022-10-25T00:21:55.980Z,71.25
2022-10-25T00:24:23.119Z,75.65
2022-10-25T00:26:50.255Z,86.22
2022-10-25T00:29:17.772Z,75.50
2022-10-25T00:31:45.037Z,85.63
2022-10-25T00:34:12.442Z,81.13
2022-10-25T00:36:39.635Z,95.47
2022-10-25T00:39:06.753Z,94.63
2022-10-25T00:41:34.860Z,100.63
2022-10-25T00:44:20.581Z,90.88
2022-10-25T00:46:47.715Z,89.60
2022-10-25T00:49:17.729Z,95.32
2022-10-25T00:51:51.077Z,84.47
2022-10-25T00:54:23.920Z,91.00
2022-10-25T00:56:51.548Z,86.90
2022-10-25T00:59:21.312Z,79.38
2022-10-25T01:01:48.630Z,91.03
2022-10-25T01:04:17.133Z,76.53
2022-10-25T01:06:47.091Z,84.03
2022-10-25T01:09:15.993Z,76.03
2022-10-25T01:11:43.182Z,73.45
2022-10-25T01:14:12.303Z,70.25
2022-10-25T01:16:39.403Z,69.03
2022-10-25T01:19:22.843Z,66.82
2022-10-25T01:21:52.385Z,68.57
2022-10-25T01:24:28.780Z,69.97
2022-10-25T01:27:12.745Z,68.60
2022-10-25T01:29:49.077Z,73.32
2022-10-25T01:32:22.846Z,68.18
2022-10-25T01:35:19.481Z,68.63
2022-10-25T01:38:05.439Z,68.18
2022-10-25T01:40:45.051Z,71.50
2022-10-25T01:43:12.136Z,73.38
2022-10-25T01:45:44.101Z,75.63
2022-10-25T01:48:20.854Z,75.93
2022-10-25T01:50:48.626Z,76.75
2022-10-25T01:53:15.835Z,80.40
2022-10-25T01:56:03.265Z,74.95
2022-10-25T01:58:38.821Z,81.05
2022-10-25T02:01:12.148Z,79.03
2022-10-25T02:03:53.916Z,81.18
2022-10-25T02:06:53.472Z,83.70
2022-10-25T02:09:28.574Z,77.00
2022-10-25T02:11:56.866Z,73.40
2022-10-25T02:14:38.334Z,82.45
2022-10-25T02:17:12.883Z,79.78
2022-10-25T02:19:45.176Z,80.80
2022-10-25T02:22:13.348Z,75.53
2022-10-25T02:24:41.242Z,84.78
2022-10-25T02:27:09.053Z,76.93
2022-10-25T02:29:36.480Z,79.47
2022-10-25T02:32:04.644Z,83.95
2022-10-25T02:34:32.116Z,86.65
2022-10-25T02:36:59.688Z,85.60
2022-10-25T02:39:31.256Z,99.13
2022-10-25T02:41:58.978Z,106.38
2022-10-25T02:44:26.249Z,105.35
2022-10-25T02:46:53.353Z,106.35
2022-10-25T02:49:20.475Z,155.45
2022-10-25T02:51:47.686Z,152.93
2022-10-25T02:54:14.818Z,177.98
2022-10-25T02:56:41.927Z,180.55
2022-10-25T02:59:12.026Z,187.25
2022-10-25T03:01:39.507Z,146.90
2022-10-25T03:04:06.690Z,209.05
2022-10-25T03:06:34.012Z,177.75
2022-10-25T03:09:01.130Z,127.50
2022-10-25T03:11:28.477Z,99.78
2022-10-25T03:13:55.664Z,114.03
2022-10-25T03:16:22.788Z,116.35
2022-10-25T03:18:50.711Z,97.95
2022-10-25T03:21:17.899Z,100.80
2022-10-25T03:23:45.059Z,97.90
2022-10-25T03:26:12.206Z,92.07
2022-10-25T03:28:39.396Z,85.40
2022-10-25T03:31:11.722Z,88.47
2022-10-25T03:33:38.992Z,78.68
2022-10-25T03:36:06.485Z,86.15
2022-10-25T03:38:33.601Z,81.68
2022-10-25T03:41:00.711Z,70.53
2022-10-25T03:43:27.936Z,72.90
2022-10-25T03:45:55.076Z,71.30
2022-10-25T03:48:22.311Z,70.57
2022-10-25T03:50:49.545Z,70.30
2022-10-25T03:53:16.757Z,71.60
2022-10-25T03:55:43.896Z,65.47
2022-10-25T03:58:11.077Z,64.50
2022-10-25T04:00:38.788Z,64.18
2022-10-25T04:05:34.146Z,63.30
2022-10-25T04:08:01.329Z,67.05
2022-10-25T04:10:28.530Z,65.80
2022-10-25T04:12:55.722Z,63.25
2022-10-25T04:15:23.308Z,60.38
2022-10-25T04:17:51.142Z,59.90
2022-10-25T04:20:18.646Z,58.20
2022-10-25T04:22:46.106Z,57.72
2022-10-25T04:25:13.246Z,59.83
2022-10-25T04:27:40.411Z,59.53
2022-10-25T04:30:07.774Z,57.28
2022-10-25T04:32:34.896Z,53.85
2022-10-25T04:35:02.148Z,60.35
2022-10-25T04:37:29.273Z,53.90
2022-10-25T04:39:56.382Z,57.95
2022-10-25T04:42:23.596Z,59.58
2022-10-25T04:44:50.717Z,61.08
2022-10-25T04:47:17.886Z,59.30
2022-10-25T04:49:45.148Z,56.05
2022-10-25T04:52:12.322Z,54.22
2022-10-25T04:54:39.448Z,53.35
2022-10-25T04:57:07.266Z,55.47
2022-10-25T04:59:34.393Z,59.80
2022-10-25T05:02:01.583Z,54.70
2022-10-25T05:04:28.773Z,56.25
2022-10-25T05:06:55.950Z,61.45
2022-10-25T05:09:23.076Z,55.35
2022-10-25T05:11:50.347Z,54.33
2022-10-25T05:14:17.479Z,51.28
2022-10-25T05:16:44.606Z,53.28
2022-10-25T05:19:11.770Z,51.67
2022-10-25T05:21:38.880Z,54.08
2022-10-25T05:24:06.171Z,49.72
2022-10-25T05:26:33.391Z,55.15
2022-10-25T05:29:00.576Z,52.33
2022-10-25T05:31:29.432Z,50.80
2022-10-25T05:34:00.723Z,51.05
2022-10-25T05:39:03.476Z,55.90
2022-10-25T05:41:33.339Z,51.97
2022-10-25T05:44:03.443Z,52.78
2022-10-25T05:46:31.262Z,52.55
2022-10-25T05:48:59.325Z,54.88
2022-10-25T05:51:33.396Z,49.92
2022-10-25T05:54:02.095Z,50.38
2022-10-25T05:56:29.830Z,52.45
2022-10-25T05:58:57.340Z,49.90
2022-10-25T06:01:26.236Z,47.95
2022-10-25T06:03:54.495Z,48.00
2022-10-25T06:06:22.062Z,49.42
2022-10-25T06:08:49.183Z,44.70
2022-10-25T06:11:20.070Z,45.38
2022-10-25T06:13:47.340Z,45.00
2022-10-25T06:16:18.550Z,44.05
2022-10-25T06:21:14.284Z,42.05
2022-10-25T06:23:41.914Z,47.50
2022-10-25T06:26:11.417Z,45.88
2022-10-25T06:28:38.929Z,49.45
2022-10-25T06:31:07.385Z,47.85
2022-10-25T06:33:34.976Z,42.25
2022-10-25T06:36:02.846Z,44.50
2022-10-25T06:38:30.319Z,43.78
2022-10-25T06:41:01.322Z,47.13
2022-10-25T06:43:28.617Z,45.47
2022-10-25T06:45:55.858Z,46.28
2022-10-25T06:48:23.056Z,42.65
2022-10-25T06:51:01.017Z,42.17
2022-10-25T06:53:28.254Z,45.38
2022-10-25T06:55:55.357Z,43.03
2022-10-25T06:58:22.470Z,38.58
2022-10-25T07:00:49.810Z,38.90
2022-10-25T07:03:17.017Z,35.67
2022-10-25T07:05:44.129Z,38.33
2022-10-25T07:08:11.307Z,36.90
2022-10-25T07:10:39.849Z,38.40
2022-10-25T07:13:06.957Z,41.38
2022-10-25T07:15:36.370Z,42.55
2022-10-25T07:18:05.789Z,38.55
2022-10-25T07:20:32.906Z,40.70
2022-10-25T07:23:00.683Z,35.95
2022-10-25T07:25:28.890Z,41.47
2022-10-25T07:27:56.027Z,38.97
2022-10-25T07:30:23.322Z,35.63
2022-10-25T07:32:50.495Z,37.35
2022-10-25T07:35:17.606Z,34.97
2022-10-25T07:37:45.053Z,38.03
2022-10-25T07:40:12.363Z,35.58
2022-10-25T07:42:39.475Z,38.03
2022-10-25T07:45:07.039Z,43.65
2022-10-25T07:47:34.238Z,37.35
2022-10-25T07:50:01.403Z,39.30
2022-10-25T07:52:28.712Z,35.35
2022-10-25T07:54:55.821Z,42.22
2022-10-25T07:57:22.959Z,41.35
2022-10-25T07:59:50.155Z,40.40
2022-10-25T08:02:17.357Z,38.83
2022-10-25T08:04:44.477Z,36.50
2022-10-25T08:07:11.667Z,37.30
2022-10-25T08:09:38.982Z,36.95
2022-10-25T08:12:06.224Z,33.70
2022-10-25T08:14:35.147Z,33.17
2022-10-25T08:17:05.305Z,37.67
2022-10-25T08:19:32.552Z,32.55
2022-10-25T08:21:59.734Z,32.20
2022-10-25T08:24:26.892Z,35.00
2022-10-25T08:26:54.014Z,35.00
2022-10-25T08:29:21.213Z,32.40
2022-10-25T08:31:48.350Z,32.45
2022-10-25T08:34:15.492Z,32.58
2022-10-25T08:36:42.680Z,37.40
2022-10-25T08:39:09.858Z,32.97
2022-10-25T08:41:36.998Z,34.13
2022-10-25T08:44:22.843Z,29.30
2022-10-25T08:47:16.307Z,32.38
2022-10-25T08:49:56.630Z,29.92
2022-10-25T08:52:40.808Z,35.93
2022-10-25T08:55:14.940Z,31.55
2022-10-25T08:57:47.287Z,30.52
2022-10-25T09:00:17.523Z,30.98
2022-10-25T09:02:51.668Z,35.15
2022-10-25T09:05:24.875Z,29.23
2022-10-25T09:07:59.233Z,29.30
2022-10-25T09:10:26.436Z,27.85
2022-10-25T09:13:08.401Z,28.60
2022-10-25T09:15:56.220Z,28.00
2022-10-25T09:18:29.797Z,28.38
2022-10-25T09:20:57.362Z,27.83
2022-10-25T09:23:29.792Z,28.17
2022-10-25T09:26:12.332Z,25.38
2022-10-25T09:28:52.190Z,26.52
2022-10-25T09:31:23.289Z,25.30
2022-10-25T09:33:52.204Z,32.00
2022-10-25T09:36:19.741Z,29.33
2022-10-25T09:38:57.225Z,28.67
2022-10-25T09:41:31.554Z,26.50
2022-10-25T09:43:58.708Z,26.35
2022-10-25T09:46:33.195Z,28.27
2022-10-25T09:49:03.805Z,27.95
2022-10-25T09:51:40.235Z,25.40
2022-10-25T09:54:21.203Z,30.40
2022-10-25T09:56:48.318Z,27.77
2022-10-25T09:59:16.131Z,24.17
2022-10-25T10:01:43.868Z,23.10
2022-10-25T10:04:26.681Z,27.08
2022-10-25T10:06:58.874Z,23.98
2022-10-25T10:09:29.473Z,23.80
2022-10-25T10:11:57.784Z,28.10
2022-10-25T10:14:40.356Z,27.08
2022-10-25T10:17:12.113Z,24.17
2022-10-25T10:19:40.522Z,24.45
2022-10-25T10:22:14.241Z,23.92
2022-10-25T10:24:42.882Z,22.70
2022-10-25T10:27:14.649Z,24.58
2022-10-25T10:29:59.699Z,19.52
2022-10-25T10:32:36.937Z,22.73
2022-10-25T10:35:05.974Z,22.33
2022-10-25T10:37:33.981Z,20.73
2022-10-25T10:40:07.389Z,24.13
2022-10-25T10:42:35.792Z,21.58
2022-10-25T10:45:02.905Z,26.05
2022-10-25T10:47:35.049Z,22.90
2022-10-25T10:50:02.920Z,22.25
2022-10-25T10:52:40.709Z,22.20
2022-10-25T10:55:17.573Z,23.60
2022-10-25T10:57:45.220Z,21.08
2022-10-25T11:00:25.949Z,23.33
2022-10-25T11:02:54.004Z,22.15
2022-10-25T11:05:29.166Z,22.50
2022-10-25T11:08:22.862Z,20.25
2022-10-25T11:10:50.008Z,17.80
2022-10-25T11:13:18.431Z,20.60
2022-10-25T11:15:45.568Z,21.42
2022-10-25T11:18:13.802Z,22.85
2022-10-25T11:20:54.021Z,24.25
2022-10-25T11:23:23.903Z,21.75
2022-10-25T11:25:55.728Z,21.95
2022-10-25T11:28:40.015Z,21.23
2022-10-25T11:31:19.267Z,21.67
2022-10-25T11:33:49.157Z,21.98
2022-10-25T11:36:16.283Z,21.25
2022-10-25T11:39:02.051Z,24.88
2022-10-25T11:41:38.381Z,22.45
2022-10-25T11:44:17.188Z,22.25
2022-10-25T11:46:47.307Z,23.98
2022-10-25T11:49:32.707Z,26.13
2022-10-25T11:52:18.616Z,35.40
2022-10-25T11:54:48.260Z,19.88
2022-10-25T11:57:34.233Z,21.02
2022-10-25T12:00:04.653Z,22.10
2022-10-25T12:02:39.197Z,23.20
2022-10-25T12:05:25.256Z,22.25
2022-10-25T12:08:21.496Z,17.63
2022-10-25T12:10:55.915Z,22.80
2022-10-25T12:13:27.309Z,23.17
2022-10-25T12:15:55.996Z,23.92
2022-10-25T12:18:26.311Z,26.63
2022-10-25T12:20:54.133Z,22.15
2022-10-25T12:23:23.597Z,25.60
2022-10-25T12:25:55.546Z,24.10
2022-10-25T12:28:22.789Z,26.48
2022-10-25T12:30:51.258Z,26.75
2022-10-25T12:33:40.390Z,25.85
2022-10-25T12:36:10.357Z,26.23
2022-10-25T12:38:38.522Z,25.17
2022-10-25T12:41:25.971Z,27.40
2022-10-25T12:44:08.099Z,25.48
2022-10-25T12:46:49.847Z,24.77
2022-10-25T12:49:43.072Z,27.05
2022-10-25T12:52:15.901Z,22.50
2022-10-25T12:54:46.125Z,29.55
2022-10-25T12:57:17.871Z,23.50
2022-10-25T13:00:03.712Z,25.10
2022-10-25T13:02:46.096Z,27.67
2022-10-25T13:05:25.359Z,24.52
2022-10-25T13:07:55.509Z,22.95
2022-10-25T13:13:01.795Z,21.70
2022-10-25T13:15:36.819Z,22.70
2022-10-25T13:18:25.488Z,24.63
2022-10-25T13:20:53.246Z,21.95
2022-10-25T13:23:39.336Z,23.45
2022-10-25T13:26:08.652Z,20.80
2022-10-25T13:28:44.589Z,23.27
2022-10-25T13:31:47.431Z,23.83
2022-10-25T13:34:14.600Z,21.10
2022-10-25T13:36:48.089Z,38.15
2022-10-25T13:39:38.455Z,24.55
2022-10-25T13:42:14.664Z,25.27
2022-10-25T13:45:07.945Z,24.95
2022-10-25T13:47:51.624Z,27.88
2022-10-25T13:50:28.143Z,48.50
2022-10-25T13:53:03.169Z,40.00
2022-10-25T13:55:34.193Z,47.95
2022-10-25T13:58:01.437Z,39.95
2022-10-25T14:00:36.831Z,33.90
2022-10-25T14:03:22.458Z,25.45
2022-10-25T14:05:55.854Z,29.85
2022-10-25T14:08:41.290Z,28.67
2022-10-25T14:11:41.252Z,31.70
2022-10-25T14:14:17.282Z,31.20
2022-10-25T14:16:53.451Z,27.30
2022-10-25T14:19:20.620Z,28.80
2022-10-25T14:21:49.108Z,30.55
2022-10-25T14:24:16.949Z,27.60
2022-10-25T14:26:57.517Z,28.30
2022-10-25T14:29:26.217Z,29.27
2022-10-25T14:31:53.801Z,27.73
2022-10-25T14:34:22.305Z,28.27
2022-10-25T14:36:50.698Z,27.17
2022-10-25T14:39:19.458Z,31.27
2022-10-25T14:41:53.892Z,32.47
2022-10-25T14:44:22.160Z,27.23
2022-10-25T14:46:49.322Z,32.67
2022-10-25T14:49:16.504Z,39.38
2022-10-25T14:51:43.927Z,35.38
2022-10-25T14:54:11.034Z,34.53
2022-10-25T14:56:38.274Z,35.20
2022-10-25T14:59:06.938Z,34.70
2022-10-25T15:01:34.686Z,42.00
2022-10-25T15:04:02.082Z,39.60
2022-10-25T15:06:30.424Z,33.08
2022-10-25T15:09:41.077Z,36.83
2022-10-25T15:12:10.073Z,35.95
2022-10-25T15:14:37.273Z,39.10
2022-10-25T15:17:05.679Z,43.97
2022-10-25T15:19:33.737Z,45.80
2022-10-25T15:22:10.754Z,42.35
2022-10-25T15:24:45.528Z,42.13
2022-10-25T15:27:31.658Z,45.10
2022-10-25T15:29:59.159Z,49.25
2022-10-25T15:32:27.633Z,48.72
2022-10-25T15:34:59.598Z,44.13
2022-10-25T15:37:27.970Z,47.88
2022-10-25T15:39:56.469Z,52.67
2022-10-25T15:42:24.904Z,44.00
2022-10-25T15:44:52.092Z,43.45
2022-10-25T15:47:22.041Z,41.90
2022-10-25T15:49:52.122Z,49.83
2022-10-25T15:52:19.499Z,48.88
2022-10-25T15:54:46.902Z,44.20
2022-10-25T15:57:14.090Z,40.25
2022-10-25T15:59:41.211Z,44.25
2022-10-25T16:02:28.612Z,45.33
2022-10-25T16:04:55.973Z,40.92
2022-10-25T16:07:23.366Z,51.58
2022-10-25T16:09:50.546Z,53.55
2022-10-25T16:12:20.337Z,56.72
2022-10-25T16:14:47.998Z,59.47
2022-10-25T16:17:15.317Z,55.80
2022-10-25T16:19:42.479Z,60.03
2022-10-25T16:22:09.713Z,59.35
2022-10-25T16:24:36.913Z,63.15
2022-10-25T16:27:04.118Z,62.78
2022-10-25T16:29:31.263Z,66.20
2022-10-25T16:31:58.517Z,68.68
2022-10-25T16:34:25.612Z,69.50
2022-10-25T16:36:52.811Z,65.70
2022-10-25T16:39:20.046Z,77.65
2022-10-25T16:41:47.657Z,73.78
2022-10-25T16:44:16.724Z,67.85
2022-10-25T16:46:44.274Z,76.85
2022-10-25T16:49:11.536Z,75.72
2022-10-25T16:51:39.361Z,68.53
2022-10-25T16:54:07.058Z,71.40
2022-10-25T16:56:34.472Z,63.17
2022-10-25T16:59:01.612Z,68.57
2022-10-25T17:01:32.694Z,64.88
2022-10-25T17:04:00.568Z,65.70
2022-10-25T17:06:43.209Z,64.75
2022-10-25T17:09:10.710Z,68.20
2022-10-25T17:11:37.875Z,65.28
2022-10-25T17:14:05.010Z,68.80
2022-10-25T17:16:32.355Z,66.53
2022-10-25T17:18:59.522Z,70.43
2022-10-25T17:21:28.238Z,64.30
2022-10-25T17:23:55.863Z,72.10
2022-10-25T17:26:23.225Z,87.18
2022-10-25T17:28:50.397Z,90.40
2022-10-25T17:31:18.005Z,69.40
2022-10-25T17:33:45.149Z,83.00
2022-10-25T17:36:13.497Z,77.55
2022-10-25T17:38:40.868Z,69.72
2022-10-25T17:41:08.373Z,83.88
2022-10-25T17:43:36.166Z,85.63
2022-10-25T17:46:04.490Z,67.32
2022-10-25T17:48:33.540Z,80.82
2022-10-25T17:51:01.335Z,68.10
2022-10-25T17:53:28.663Z,74.82
2022-10-25T17:55:55.852Z,66.85
2022-10-25T17:58:23.222Z,75.22
2022-10-25T18:00:50.485Z,84.70
2022-10-25T18:03:17.615Z,68.47
2022-10-25T18:05:44.746Z,75.25
2022-10-25T18:08:12.051Z,71.85
2022-10-25T18:10:39.269Z,72.78
2022-10-25T18:13:06.373Z,60.80
2022-10-25T18:15:35.881Z,64.40
2022-10-25T18:18:03.092Z,68.38
2022-10-25T18:20:30.237Z,65.05
2022-10-25T18:22:57.926Z,62.67
2022-10-25T18:25:25.140Z,64.55
2022-10-25T18:27:52.362Z,61.50
2022-10-25T18:30:19.769Z,51.25
2022-10-25T18:32:46.895Z,55.33
2022-10-25T18:35:14.062Z,58.00
2022-10-25T18:37:41.281Z,56.00
2022-10-25T18:40:10.108Z,61.30
2022-10-25T18:42:38.149Z,64.68
2022-10-25T18:45:05.915Z,69.68
2022-10-25T18:47:33.277Z,65.97
2022-10-25T18:50:00.456Z,60.80
2022-10-25T18:52:27.805Z,53.53
2022-10-25T18:54:55.070Z,54.10
2022-10-25T18:57:22.216Z,62.80
2022-10-25T18:59:49.580Z,59.67
2022-10-25T19:02:16.782Z,53.33
2022-10-25T19:04:44.074Z,50.03
2022-10-25T19:07:11.463Z,52.08
2022-10-25T19:09:38.654Z,51.95
2022-10-25T19:12:06.036Z,51.42
2022-10-25T19:14:33.388Z,48.50
2022-10-25T19:17:00.587Z,49.55
2022-10-25T19:19:27.784Z,49.35
2022-10-25T19:21:55.170Z,49.78
2022-10-25T19:24:22.854Z,51.42
2022-10-25T19:26:50.047Z,50.97
2022-10-25T19:29:17.271Z,50.83
2022-10-25T19:31:44.563Z,56.10
2022-10-25T19:34:11.790Z,51.72
2022-10-25T19:36:39.117Z,50.10
2022-10-25T19:39:06.317Z,52.30
2022-10-25T19:41:33.588Z,57.60
2022-10-25T19:44:00.913Z,50.97
2022-10-25T19:46:28.119Z,58.17
2022-10-25T19:48:56.345Z,55.92
2022-10-25T19:51:23.857Z,57.33
2022-10-25T19:53:51.086Z,63.72
2022-10-25T19:56:19.644Z,56.65
2022-10-25T19:58:47.169Z,60.58
2022-10-25T20:01:15.858Z,67.82
2022-10-25T20:03:43.785Z,79.45
2022-10-25T20:06:21.606Z,69.40
2022-10-25T20:08:51.726Z,75.97
2022-10-25T20:11:19.690Z,70.88
2022-10-25T20:13:46.869Z,63.55
2022-10-25T20:16:14.476Z,63.85
2022-10-25T20:18:42.470Z,64.15
2022-10-25T20:21:11.665Z,70.05
2022-10-25T20:23:39.368Z,70.55
2022-10-25T20:26:12.652Z,66.50
2022-10-25T20:28:39.862Z,73.72
2022-10-25T20:31:07.373Z,79.50
2022-10-25T20:33:34.571Z,79.95
2022-10-25T20:36:05.590Z,80.20
2022-10-25T20:38:32.723Z,74.93
2022-10-25T20:41:05.841Z,70.70
2022-10-25T20:43:33.087Z,67.97
2022-10-25T20:46:00.768Z,75.38
2022-10-25T20:48:28.149Z,74.07
2022-10-25T20:50:55.321Z,68.57
2022-10-25T20:53:22.663Z,69.82
2022-10-25T20:55:50.186Z,75.50
2022-10-25T20:58:18.433Z,77.68
2022-10-25T21:00:46.171Z,75.50
2022-10-25T21:03:13.944Z,71.82
2022-10-25T21:05:45.164Z,74.50
2022-10-25T21:10:40.089Z,84.85
2022-10-25T21:13:07.231Z,76.53
2022-10-25T21:15:34.343Z,65.43
2022-10-25T21:18:01.611Z,76.72
2022-10-25T21:20:29.278Z,76.18
2022-10-25T21:22:57.027Z,70.85
2022-10-25T21:25:24.586Z,60.42
2022-10-25T21:27:54.738Z,64.28
2022-10-25T21:30:22.023Z,60.05
2022-10-25T21:32:49.396Z,56.80
2022-10-25T21:35:16.579Z,44.70
2022-10-25T21:37:46.843Z,43.78
2022-10-25T21:40:16.880Z,42.50
2022-10-25T21:42:44.180Z,41.88
2022-10-25T21:45:11.857Z,40.53
2022-10-25T21:47:39.040Z,42.25
2022-10-25T21:50:09.142Z,41.25
2022-10-25T21:52:36.762Z,38.15
2022-10-25T21:55:04.002Z,37.83
2022-10-25T21:57:31.219Z,38.22
2022-10-25T21:59:58.369Z,34.88
2022-10-25T22:02:25.692Z,36.22
2022-10-25T22:04:53.021Z,39.75
2022-10-25T22:07:20.125Z,41.38
2022-10-25T22:09:47.319Z,40.17
2022-10-25T22:12:14.434Z,37.10
2022-10-25T22:14:41.585Z,34.53
2022-10-25T22:17:09.033Z,35.90
2022-10-25T22:19:36.143Z,37.42
2022-10-25T22:22:03.285Z,41.00
2022-10-25T22:24:30.532Z,33.58
2022-10-25T22:26:57.646Z,35.03
2022-10-25T22:29:24.789Z,35.80
2022-10-25T22:31:52.039Z,35.05
2022-10-25T22:34:19.186Z,33.42
2022-10-25T22:36:46.327Z,30.13
2022-10-25T22:39:13.503Z,30.65
2022-10-25T22:41:40.686Z,32.15
2022-10-25T22:44:07.849Z,33.70
2022-10-25T22:46:36.004Z,30.17
2022-10-25T22:49:07.523Z,28.08
2022-10-25T22:51:35.043Z,26.42
2022-10-25T22:54:02.225Z,25.33
2022-10-25T22:56:30.114Z,24.30
2022-10-25T22:58:58.079Z,20.17
2022-10-25T23:01:26.616Z,13.85
2022-10-25T23:03:54.912Z,12.57
2022-10-25T23:06:25.492Z,14.30
2022-10-25T23:08:53.585Z,13.25
2022-10-25T23:11:21.682Z,13.70
2022-10-25T23:13:48.867Z,16.88
2022-10-25T23:16:16.444Z,16.80
2022-10-25T23:18:43.983Z,16.02
2022-10-25T23:21:18.345Z,14.82
2022-10-25T23:23:45.998Z,16.88
2022-10-25T23:26:15.871Z,17.00
2022-10-25T23:28:43.254Z,18.70
2022-10-25T23:31:11.308Z,21.17
2022-10-25T23:33:38.861Z,17.88
2022-10-25T23:36:25.655Z,18.02
2022-10-25T23:38:53.395Z,19.77
2022-10-25T23:41:21.148Z,18.88
2022-10-25T23:43:48.440Z,18.10
2022-10-25T23:46:15.577Z,18.13
2022-10-25T23:48:42.723Z,18.40
2022-10-25T23:51:11.562Z,16.55
2022-10-25T23:53:38.977Z,16.85
2022-10-25T23:56:07.760Z,18.95
2022-10-25T23:58:35.213Z,19.98
